createdAt,value
2018-01-03T00:00:31.721Z,1.25
2018-01-03T00:02:59.169Z,1.32
2018-01-03T00:05:26.972Z,1.28
2018-01-03T00:07:54.876Z,1.29
2018-01-03T00:10:22.329Z,1.50
2018-01-03T00:12:50.076Z,1.66
2018-01-03T00:15:17.532Z,1.47
2018-01-03T00:17:44.988Z,1.55
2018-01-03T00:20:12.908Z,1.94
2018-01-03T00:22:40.365Z,1.95
2018-01-03T00:25:07.817Z,1.85
2018-01-03T00:27:35.949Z,1.94
2018-01-03T00:30:03.419Z,1.88
2018-01-03T00:32:30.869Z,1.80
2018-01-03T00:34:58.648Z,1.74
2018-01-03T00:37:26.108Z,1.62
2018-01-03T00:39:53.556Z,1.54
2018-01-03T00:42:21.633Z,1.54
2018-01-03T00:44:49.089Z,1.58
2018-01-03T00:47:16.552Z,1.39
2018-01-03T00:49:44.313Z,1.32
2018-01-03T00:52:11.764Z,1.42
2018-01-03T00:54:39.216Z,1.36
2018-01-03T00:57:07.318Z,1.26
2018-01-03T00:59:34.773Z,1.16
2018-01-03T01:02:02.223Z,1.25
2018-01-03T01:04:30.307Z,1.25
2018-01-03T01:06:57.761Z,1.09
2018-01-03T01:09:25.426Z,0.99
2018-01-03T01:11:53.291Z,0.88
2018-01-03T01:14:20.741Z,0.70
2018-01-03T01:16:48.193Z,0.84
2018-01-03T01:19:16.290Z,0.83
2018-01-03T01:21:43.742Z,0.88
2018-01-03T01:24:11.209Z,0.98
2018-01-03T01:26:39.001Z,0.85
2018-01-03T01:29:06.473Z,0.92
2018-01-03T01:31:33.931Z,0.83
2018-01-03T01:34:01.674Z,0.76
2018-01-03T01:36:29.132Z,0.80
2018-01-03T01:38:56.591Z,0.87
2018-01-03T01:41:24.664Z,0.82
2018-01-03T01:43:52.124Z,0.68
2018-01-03T01:46:19.584Z,0.60
2018-01-03T01:48:59.337Z,0.69
2018-01-03T01:51:26.805Z,0.59
2018-01-03T01:53:54.256Z,0.48
2018-01-03T01:56:21.893Z,0.61
2018-01-03T01:58:49.353Z,0.63
2018-01-03T02:01:16.810Z,0.69
2018-01-03T02:03:44.708Z,0.68
2018-01-03T02:06:12.172Z,0.71
2018-01-03T02:08:39.646Z,0.72
2018-01-03T02:11:08.012Z,0.73
2018-01-03T02:13:35.480Z,0.77
2018-01-03T02:16:02.934Z,0.75
2018-01-03T02:18:30.696Z,0.81
2018-01-03T02:20:58.158Z,0.79
2018-01-03T02:23:25.642Z,0.85
2018-01-03T02:25:53.695Z,0.90
2018-01-03T02:28:21.157Z,0.91
2018-01-03T02:30:48.616Z,0.88
2018-01-03T02:33:16.671Z,0.89
2018-01-03T02:35:44.138Z,0.81
2018-01-03T02:38:23.883Z,0.83
2018-01-03T02:40:51.341Z,0.81
2018-01-03T02:43:18.805Z,0.82
2018-01-03T02:45:46.480Z,0.80
2018-01-03T02:48:13.948Z,0.78
2018-01-03T02:50:41.405Z,0.76
2018-01-03T02:53:09.261Z,0.81
2018-01-03T02:55:36.713Z,0.81
2018-01-03T02:58:04.184Z,0.78
2018-01-03T03:00:32.258Z,0.74
2018-01-03T03:02:59.749Z,0.63
2018-01-03T03:05:27.201Z,0.71
2018-01-03T03:07:54.785Z,0.63
2018-01-03T03:10:22.243Z,0.77
2018-01-03T03:12:52.403Z,0.81
2018-01-03T03:15:20.400Z,0.95
2018-01-03T03:17:47.852Z,0.70
2018-01-03T03:20:15.312Z,0.74
2018-01-03T03:22:43.087Z,0.88
2018-01-03T03:25:10.554Z,1.09
2018-01-03T03:27:38.011Z,1.02
2018-01-03T03:30:05.766Z,1.04
2018-01-03T03:32:33.224Z,1.13
2018-01-03T03:35:00.677Z,1.16
2018-01-03T03:37:28.753Z,1.17
2018-01-03T03:39:56.205Z,1.25
2018-01-03T03:42:23.659Z,1.31
2018-01-03T03:44:51.448Z,1.28
2018-01-03T03:47:18.900Z,1.28
2018-01-03T03:49:46.357Z,1.44
2018-01-03T03:52:14.440Z,1.51
2018-01-03T03:54:41.905Z,1.48
2018-01-03T03:57:09.362Z,1.46
2018-01-03T03:59:37.130Z,1.60
2018-01-03T04:02:04.585Z,1.66
2018-01-03T04:04:32.045Z,1.83
2018-01-03T04:06:59.777Z,1.92
2018-01-03T04:09:27.234Z,1.93
2018-01-03T04:11:54.692Z,1.78
2018-01-03T04:14:22.817Z,1.84
2018-01-03T04:16:50.280Z,1.84
2018-01-03T04:19:17.739Z,1.80
2018-01-03T04:21:45.511Z,2.06
2018-01-03T04:24:12.970Z,1.97
2018-01-03T04:26:40.429Z,1.99
2018-01-03T04:29:09.412Z,1.91
2018-01-03T04:31:36.868Z,1.93
2018-01-03T04:34:04.322Z,1.95
2018-01-03T04:36:31.961Z,1.98
2018-01-03T04:38:59.412Z,2.01
2018-01-03T04:41:26.868Z,2.01
2018-01-03T04:43:54.789Z,1.99
2018-01-03T04:46:22.245Z,2.19
2018-01-03T04:48:49.696Z,2.32
2018-01-03T04:51:17.482Z,2.22
2018-01-03T04:53:44.944Z,2.16
2018-01-03T04:56:12.409Z,2.16
2018-01-03T04:58:40.161Z,2.28
2018-01-03T05:01:07.620Z,2.27
2018-01-03T05:03:35.074Z,2.27
2018-01-03T05:06:02.847Z,2.15
2018-01-03T05:08:30.297Z,2.30
2018-01-03T05:10:57.756Z,2.39
2018-01-03T05:13:25.853Z,2.46
2018-01-03T05:15:54.312Z,2.65
2018-01-03T05:18:21.785Z,2.59
2018-01-03T05:20:49.760Z,2.42
2018-01-03T05:23:17.223Z,2.50
2018-01-03T05:25:44.688Z,2.25
2018-01-03T05:28:12.456Z,2.40
2018-01-03T05:30:39.920Z,2.69
2018-01-03T05:33:07.380Z,2.66
2018-01-03T05:35:35.451Z,2.71
2018-01-03T05:38:02.924Z,2.72
2018-01-03T05:40:30.377Z,2.75
2018-01-03T05:42:58.109Z,2.89
2018-01-03T05:45:25.560Z,2.88
2018-01-03T05:47:53.010Z,2.83
2018-01-03T05:50:20.826Z,2.57
2018-01-03T05:52:48.279Z,2.59
2018-01-03T05:55:15.730Z,2.56
2018-01-03T05:57:43.508Z,2.41
2018-01-03T06:00:10.965Z,2.54
2018-01-03T06:02:38.420Z,2.55
2018-01-03T06:05:06.188Z,2.53
2018-01-03T06:07:33.639Z,2.70
2018-01-03T06:10:01.088Z,2.78
2018-01-03T06:12:28.886Z,2.78
2018-01-03T06:14:56.346Z,2.67
2018-01-03T06:17:24.493Z,2.43
2018-01-03T06:19:52.490Z,2.47
2018-01-03T06:22:19.945Z,2.61
2018-01-03T06:24:47.405Z,2.34
2018-01-03T06:27:16.048Z,2.35
2018-01-03T06:29:43.501Z,2.41
2018-01-03T06:32:10.965Z,2.40
2018-01-03T06:34:38.796Z,2.44
2018-01-03T06:37:06.252Z,2.40
2018-01-03T06:39:33.714Z,2.49
2018-01-03T06:42:01.471Z,2.50
2018-01-03T06:44:28.924Z,2.56
2018-01-03T06:46:56.500Z,2.74
2018-01-03T06:49:24.342Z,2.62
2018-01-03T06:51:51.801Z,2.64
2018-01-03T06:54:19.248Z,2.55
2018-01-03T06:56:47.147Z,2.64
2018-01-03T06:59:14.597Z,2.81
2018-01-03T07:01:42.042Z,2.68
2018-01-03T07:04:09.854Z,2.68
2018-01-03T07:06:37.301Z,2.75
2018-01-03T07:09:04.757Z,2.95
2018-01-03T07:11:32.521Z,2.81
2018-01-03T07:13:59.981Z,2.75
2018-01-03T07:16:27.428Z,2.77
2018-01-03T07:18:55.207Z,2.82
2018-01-03T07:21:22.652Z,2.86
2018-01-03T07:23:50.104Z,2.88
2018-01-03T07:26:17.888Z,2.74
2018-01-03T07:28:45.732Z,2.74
2018-01-03T07:31:13.177Z,2.73
2018-01-03T07:33:40.888Z,2.71
2018-01-03T07:36:08.340Z,2.77
2018-01-03T07:38:35.794Z,2.74
2018-01-03T07:41:03.501Z,2.82
2018-01-03T07:43:30.961Z,2.87
2018-01-03T07:45:58.419Z,2.80
2018-01-03T07:48:26.256Z,2.87
2018-01-03T07:50:53.705Z,3.01
2018-01-03T07:53:21.169Z,3.12
2018-01-03T07:55:48.956Z,3.14
2018-01-03T07:58:16.401Z,2.94
2018-01-03T08:00:43.852Z,3.06
2018-01-03T08:03:11.636Z,3.04
2018-01-03T08:05:39.085Z,3.04
2018-01-03T08:08:06.541Z,3.37
2018-01-03T08:10:34.321Z,3.29
2018-01-03T08:13:01.773Z,3.19
2018-01-03T08:15:29.241Z,3.14
2018-01-03T08:17:57.333Z,2.99
2018-01-03T08:20:24.784Z,3.01
2018-01-03T08:22:52.221Z,3.07
2018-01-03T08:25:20.309Z,3.03
2018-01-03T08:27:47.745Z,3.07
2018-01-03T08:30:15.621Z,3.08
2018-01-03T08:32:43.617Z,3.17
2018-01-03T08:35:11.061Z,3.22
2018-01-03T08:37:38.521Z,3.20
2018-01-03T08:40:06.312Z,3.24
2018-01-03T08:42:33.761Z,3.31
2018-01-03T08:45:01.216Z,3.25
2018-01-03T08:47:28.996Z,3.40
2018-01-03T08:49:56.445Z,3.45
2018-01-03T08:52:23.901Z,3.49
2018-01-03T08:54:51.682Z,3.62
2018-01-03T08:57:19.135Z,3.76
2018-01-03T08:59:46.586Z,3.64
2018-01-03T09:02:14.388Z,3.75
2018-01-03T09:04:41.854Z,3.93
2018-01-03T09:07:09.304Z,3.76
2018-01-03T09:09:37.045Z,3.94
2018-01-03T09:12:04.488Z,4.00
2018-01-03T09:14:31.941Z,3.72
2018-01-03T09:16:59.736Z,3.90
2018-01-03T09:19:27.190Z,3.95
2018-01-03T09:21:54.645Z,4.04
2018-01-03T09:24:22.746Z,4.29
2018-01-03T09:26:50.200Z,4.22
2018-01-03T09:29:17.657Z,4.44
2018-01-03T09:31:46.340Z,4.49
2018-01-03T09:34:13.801Z,4.50
2018-01-03T09:36:41.244Z,4.57
2018-01-03T09:39:08.953Z,4.69
2018-01-03T09:41:36.407Z,4.81
2018-01-03T09:44:03.862Z,4.89
2018-01-03T09:46:31.581Z,4.81
2018-01-03T09:48:59.026Z,4.93
2018-01-03T09:51:26.477Z,5.09
2018-01-03T09:53:54.416Z,5.25
2018-01-03T09:56:21.872Z,5.47
2018-01-03T09:58:49.336Z,5.39
2018-01-03T10:01:17.097Z,5.51
2018-01-03T10:03:44.559Z,5.76
2018-01-03T10:06:12.084Z,5.55
2018-01-03T10:08:40.096Z,5.62
2018-01-03T10:11:07.549Z,5.51
2018-01-03T10:13:34.996Z,5.50
2018-01-03T10:16:02.776Z,5.63
2018-01-03T10:18:30.229Z,5.41
2018-01-03T10:20:57.676Z,5.62
2018-01-03T10:23:25.461Z,5.51
2018-01-03T10:25:52.903Z,5.69
2018-01-03T10:28:20.356Z,5.73
2018-01-03T10:30:48.151Z,5.66
2018-01-03T10:33:15.981Z,5.53
2018-01-03T10:35:43.425Z,5.36
2018-01-03T10:38:11.145Z,5.00
2018-01-03T10:40:38.596Z,5.13
2018-01-03T10:43:06.048Z,5.05
2018-01-03T10:45:33.836Z,5.03
2018-01-03T10:48:01.296Z,5.15
2018-01-03T10:50:28.740Z,5.14
2018-01-03T10:52:56.528Z,5.13
2018-01-03T10:55:23.988Z,5.23
2018-01-03T10:57:51.437Z,5.16
2018-01-03T11:00:19.200Z,5.31
2018-01-03T11:02:46.645Z,5.30
2018-01-03T11:05:14.089Z,5.21
2018-01-03T11:07:41.887Z,5.20
2018-01-03T11:10:09.339Z,5.35
2018-01-03T11:12:36.793Z,5.51
2018-01-03T11:15:05.192Z,5.76
2018-01-03T11:17:32.639Z,5.85
2018-01-03T11:20:00.091Z,5.91
2018-01-03T11:22:27.872Z,5.88
2018-01-03T11:24:55.313Z,5.87
2018-01-03T11:27:22.760Z,5.77
2018-01-03T11:29:50.570Z,5.58
2018-01-03T11:32:18.014Z,5.25
2018-01-03T11:34:45.868Z,5.02
2018-01-03T11:37:13.791Z,4.64
2018-01-03T11:39:41.401Z,4.28
2018-01-03T11:42:08.848Z,4.16
2018-01-03T11:44:36.863Z,4.09
2018-01-03T11:47:04.311Z,4.02
2018-01-03T11:49:31.769Z,4.01
2018-01-03T11:51:59.862Z,3.98
2018-01-03T11:54:27.321Z,3.96
2018-01-03T11:56:54.821Z,3.96
2018-01-03T11:59:22.852Z,3.94
2018-01-03T12:01:50.305Z,3.96
2018-01-03T12:04:17.768Z,4.00
2018-01-03T12:06:45.505Z,4.06
2018-01-03T12:09:12.969Z,4.13
2018-01-03T12:11:40.424Z,4.55
2018-01-03T12:14:08.238Z,4.72
2018-01-03T12:16:35.704Z,4.77
2018-01-03T12:19:03.157Z,4.97
2018-01-03T12:21:30.959Z,5.10
2018-01-03T12:23:58.418Z,5.30
2018-01-03T12:26:25.881Z,5.42
2018-01-03T12:28:53.608Z,5.53
2018-01-03T12:31:21.062Z,5.57
2018-01-03T12:33:48.521Z,5.67
2018-01-03T12:36:16.852Z,5.74
2018-01-03T12:38:44.307Z,5.76
2018-01-03T12:41:11.765Z,5.76
2018-01-03T12:43:39.597Z,5.81
2018-01-03T12:46:07.056Z,5.83
2018-01-03T12:48:34.518Z,5.87
2018-01-03T12:51:02.329Z,5.91
2018-01-03T12:53:29.780Z,5.93
2018-01-03T12:55:57.236Z,5.92
2018-01-03T12:58:24.968Z,5.89
2018-01-03T13:00:52.427Z,5.85
2018-01-03T13:03:19.880Z,5.85
2018-01-03T13:05:47.644Z,5.81
2018-01-03T13:08:15.093Z,5.81
2018-01-03T13:10:42.537Z,5.77
2018-01-03T13:13:10.639Z,5.81
2018-01-03T13:15:38.088Z,5.77
2018-01-03T13:18:05.544Z,5.83
2018-01-03T13:20:33.851Z,5.78
2018-01-03T13:23:01.305Z,5.79
2018-01-03T13:25:28.749Z,5.79
2018-01-03T13:27:56.632Z,5.84
2018-01-03T13:30:24.077Z,5.79
2018-01-03T13:32:52.548Z,5.79
2018-01-03T13:35:20.540Z,5.82
2018-01-03T13:37:48.380Z,5.78
2018-01-03T13:40:15.829Z,5.81
2018-01-03T13:42:43.537Z,5.84
2018-01-03T13:45:10.976Z,5.94
2018-01-03T13:47:38.417Z,5.98
2018-01-03T13:50:06.036Z,6.07
2018-01-03T13:52:33.482Z,6.17
2018-01-03T13:55:00.926Z,6.17
2018-01-03T13:57:28.600Z,6.18
2018-01-03T13:59:56.053Z,6.17
2018-01-03T14:02:23.515Z,6.14
2018-01-03T14:04:51.287Z,6.15
2018-01-03T14:07:18.729Z,6.15
2018-01-03T14:09:46.260Z,6.12
2018-01-03T14:12:14.284Z,6.01
2018-01-03T14:14:41.729Z,5.90
2018-01-03T14:17:09.169Z,5.89
2018-01-03T14:19:36.982Z,5.82
2018-01-03T14:22:04.454Z,5.83
2018-01-03T14:24:31.906Z,5.91
2018-01-03T14:26:59.688Z,6.02
2018-01-03T14:29:27.138Z,6.04
2018-01-03T14:31:54.640Z,6.04
2018-01-03T14:34:22.349Z,6.03
2018-01-03T14:36:49.792Z,6.20
2018-01-03T14:39:18.261Z,6.10
2018-01-03T14:41:46.118Z,6.07
2018-01-03T14:44:13.580Z,6.02
2018-01-03T14:46:41.027Z,6.03
2018-01-03T14:49:08.944Z,5.97
2018-01-03T14:51:36.388Z,6.06
2018-01-03T14:54:03.833Z,6.14
2018-01-03T14:56:31.647Z,6.15
2018-01-03T14:58:59.097Z,6.21
2018-01-03T15:01:26.545Z,6.34
2018-01-03T15:03:54.204Z,6.45
2018-01-03T15:06:21.649Z,6.44
2018-01-03T15:08:49.089Z,6.68
2018-01-03T15:11:17.317Z,6.52
2018-01-03T15:13:44.761Z,6.15
2018-01-03T15:16:12.205Z,6.19
2018-01-03T15:18:40.013Z,5.84
2018-01-03T15:21:07.465Z,5.77
2018-01-03T15:23:34.926Z,5.86
2018-01-03T15:26:02.700Z,5.84
2018-01-03T15:28:30.140Z,5.71
2018-01-03T15:30:57.609Z,5.70
2018-01-03T15:33:25.390Z,5.74
2018-01-03T15:35:52.844Z,6.02
2018-01-03T15:38:20.658Z,6.07
2018-01-03T15:40:50.833Z,6.09
2018-01-03T15:43:18.277Z,6.19
2018-01-03T15:45:45.746Z,6.22
2018-01-03T15:48:13.528Z,6.43
2018-01-03T15:50:40.980Z,6.41
2018-01-03T15:53:08.429Z,6.61
2018-01-03T15:55:36.204Z,6.44
2018-01-03T15:58:03.675Z,6.14
2018-01-03T16:00:31.165Z,6.17
2018-01-03T16:02:59.114Z,6.09
2018-01-03T16:05:26.568Z,6.24
2018-01-03T16:07:54.290Z,6.21
2018-01-03T16:10:22.213Z,6.14
2018-01-03T16:12:49.674Z,6.23
2018-01-03T16:15:17.149Z,6.13
2018-01-03T16:17:45.182Z,6.09
2018-01-03T16:20:12.619Z,6.07
2018-01-03T16:22:40.067Z,5.97
2018-01-03T16:25:07.882Z,6.05
2018-01-03T16:27:35.328Z,6.04
2018-01-03T16:30:02.788Z,6.10
2018-01-03T16:32:30.871Z,6.08
2018-01-03T16:34:58.308Z,6.15
2018-01-03T16:37:25.753Z,6.36
2018-01-03T16:39:53.561Z,6.28
2018-01-03T16:42:21.700Z,6.39
2018-01-03T16:44:49.137Z,6.39
2018-01-03T16:47:16.865Z,6.45
2018-01-03T16:49:44.302Z,6.61
2018-01-03T16:52:17.461Z,6.51
2018-01-03T16:54:45.170Z,6.57
2018-01-03T16:57:12.929Z,6.59
2018-01-03T16:59:40.364Z,6.64
2018-01-03T17:02:08.372Z,6.65
2018-01-03T17:04:35.823Z,6.61
2018-01-03T17:07:03.347Z,6.49
2018-01-03T17:09:31.370Z,6.62
2018-01-03T17:11:58.832Z,6.54
2018-01-03T17:14:26.270Z,6.56
2018-01-03T17:16:54.375Z,6.21
2018-01-03T17:19:21.837Z,6.04
2018-01-03T17:21:49.593Z,5.99
2018-01-03T17:24:17.357Z,5.91
2018-01-03T17:26:44.810Z,5.96
2018-01-03T17:29:12.254Z,6.01
2018-01-03T17:31:39.972Z,5.85
2018-01-03T17:34:07.420Z,5.88
2018-01-03T17:36:34.872Z,5.89
2018-01-03T17:39:02.705Z,5.84
2018-01-03T17:41:30.161Z,5.86
2018-01-03T17:43:57.721Z,6.05
2018-01-03T17:46:25.521Z,6.01
2018-01-03T17:48:52.967Z,6.02
2018-01-03T17:51:20.417Z,5.94
2018-01-03T17:53:48.411Z,5.90
2018-01-03T17:56:15.858Z,6.03
2018-01-03T17:58:43.292Z,6.19
2018-01-03T18:01:11.110Z,6.18
2018-01-03T18:03:38.564Z,6.16
2018-01-03T18:06:06.042Z,6.22
2018-01-03T18:08:33.788Z,6.27
2018-01-03T18:11:01.746Z,6.39
2018-01-03T18:13:29.583Z,6.42
2018-01-03T18:15:57.396Z,6.57
2018-01-03T18:18:24.863Z,6.66
2018-01-03T18:20:52.308Z,6.78
2018-01-03T18:23:20.085Z,6.88
2018-01-03T18:25:47.516Z,6.87
2018-01-03T18:28:15.443Z,6.82
2018-01-03T18:30:43.709Z,6.64
2018-01-03T18:33:11.780Z,6.81
2018-01-03T18:35:39.252Z,6.61
2018-01-03T18:38:06.992Z,6.84
2018-01-03T18:40:34.538Z,6.77
2018-01-03T18:43:02.021Z,6.90
2018-01-03T18:45:30.353Z,6.84
2018-01-03T18:47:57.798Z,6.97
2018-01-03T18:50:25.248Z,6.94
2018-01-03T18:52:53.660Z,6.99
2018-01-03T18:55:21.112Z,7.07
2018-01-03T18:57:48.546Z,7.12
2018-01-03T19:00:16.296Z,7.22
2018-01-03T19:02:43.740Z,7.27
2018-01-03T19:05:11.183Z,7.28
2018-01-03T19:07:38.921Z,7.34
2018-01-03T19:10:06.374Z,7.50
2018-01-03T19:12:33.812Z,7.46
2018-01-03T19:15:01.670Z,7.29
2018-01-03T19:17:29.164Z,7.29
2018-01-03T19:19:56.607Z,7.50
2018-01-03T19:22:24.371Z,7.26
2018-01-03T19:24:51.807Z,7.42
2018-01-03T19:27:19.296Z,7.44
2018-01-03T19:29:47.349Z,7.57
2018-01-03T19:32:14.797Z,7.54
2018-01-03T19:34:42.247Z,7.52
2018-01-03T19:37:10.025Z,7.52
2018-01-03T19:39:37.464Z,7.49
2018-01-03T19:42:04.918Z,7.49
2018-01-03T19:44:32.727Z,7.49
2018-01-03T19:47:03.025Z,7.52
2018-01-03T19:49:30.473Z,7.52
2018-01-03T19:51:58.485Z,7.42
2018-01-03T19:54:26.277Z,7.51
2018-01-03T19:56:53.756Z,7.47
2018-01-03T19:59:21.484Z,7.52
2018-01-03T20:01:48.936Z,7.53
2018-01-03T20:04:16.415Z,7.54
2018-01-03T20:06:44.185Z,7.45
2018-01-03T20:09:11.678Z,7.47
2018-01-03T20:11:39.131Z,7.56
2018-01-03T20:14:07.155Z,7.43
2018-01-03T20:16:34.683Z,7.44
2018-01-03T20:19:02.160Z,7.53
2018-01-03T20:21:30.160Z,7.52
2018-01-03T20:23:57.613Z,7.54
2018-01-03T20:26:25.075Z,7.59
2018-01-03T20:28:53.149Z,7.58
2018-01-03T20:31:21.063Z,7.49
2018-01-03T20:33:48.576Z,7.38
2018-01-03T20:36:17.418Z,7.64
2018-01-03T20:38:45.200Z,7.58
2018-01-03T20:41:12.691Z,7.56
2018-01-03T20:43:40.282Z,7.62
2018-01-03T20:46:07.747Z,7.53
2018-01-03T20:48:36.291Z,7.54
2018-01-03T20:51:03.962Z,7.58
2018-01-03T20:53:31.485Z,7.51
2018-01-03T20:55:58.945Z,7.61
2018-01-03T20:58:27.259Z,7.60
2018-01-03T21:00:54.705Z,7.63
2018-01-03T21:03:22.146Z,7.65
2018-01-03T21:05:49.952Z,7.69
2018-01-03T21:08:17.401Z,7.76
2018-01-03T21:10:44.856Z,7.66
2018-01-03T21:13:12.649Z,7.72
2018-01-03T21:15:40.090Z,7.76
2018-01-03T21:18:07.643Z,7.67
2018-01-03T21:20:35.645Z,7.75
2018-01-03T21:23:03.095Z,7.84
2018-01-03T21:25:30.600Z,7.77
2018-01-03T21:27:58.704Z,7.92
2018-01-03T21:30:26.209Z,7.89
2018-01-03T21:32:53.669Z,7.88
2018-01-03T21:35:21.608Z,7.78
2018-01-03T21:37:49.073Z,7.74
2018-01-03T21:40:16.525Z,7.88
2018-01-03T21:42:44.303Z,7.89
2018-01-03T21:45:11.764Z,7.95
2018-01-03T21:47:39.214Z,7.88
2018-01-03T21:50:08.229Z,7.97
2018-01-03T21:52:35.667Z,7.88
2018-01-03T21:55:03.105Z,7.89
2018-01-03T21:57:30.932Z,7.78
2018-01-03T21:59:58.383Z,7.75
2018-01-03T22:02:25.833Z,7.62
2018-01-03T22:04:53.603Z,7.81
2018-01-03T22:07:21.063Z,7.88
2018-01-03T22:09:48.536Z,7.78
2018-01-03T22:12:16.297Z,7.89
2018-01-03T22:14:44.653Z,7.98
2018-01-03T22:17:12.097Z,7.89
2018-01-03T22:19:39.909Z,7.98
2018-01-03T22:22:07.356Z,7.96
2018-01-03T22:24:34.804Z,8.03
2018-01-03T22:27:02.580Z,8.08
2018-01-03T22:29:30.022Z,8.08
2018-01-03T22:31:57.516Z,8.19
2018-01-03T22:34:25.270Z,8.11
2018-01-03T22:36:52.709Z,8.11
2018-01-03T22:39:20.181Z,8.14
2018-01-03T22:41:47.917Z,8.01
2018-01-03T22:44:15.373Z,8.07
2018-01-03T22:46:42.839Z,8.10
2018-01-03T22:49:10.645Z,8.02
2018-01-03T22:51:39.099Z,7.98
2018-01-03T22:54:06.537Z,7.83
2018-01-03T22:56:34.248Z,7.88
2018-01-03T22:59:01.689Z,7.91
2018-01-03T23:01:29.141Z,7.86
2018-01-03T23:03:56.876Z,7.97
2018-01-03T23:06:24.334Z,7.97
2018-01-03T23:08:51.789Z,8.02
2018-01-03T23:11:19.630Z,7.97
2018-01-03T23:13:47.070Z,8.11
2018-01-03T23:16:14.517Z,7.98
2018-01-03T23:18:42.364Z,8.03
2018-01-03T23:21:09.835Z,7.95
2018-01-03T23:23:37.257Z,8.12
2018-01-03T23:26:05.009Z,8.08
2018-01-03T23:28:32.449Z,8.14
2018-01-03T23:30:59.896Z,8.10
2018-01-03T23:33:27.695Z,8.06
2018-01-03T23:35:55.133Z,8.02
2018-01-03T23:38:22.578Z,8.02
2018-01-03T23:40:50.693Z,8.06
2018-01-03T23:43:18.148Z,7.99
2018-01-03T23:45:45.597Z,8.06
2018-01-03T23:48:13.320Z,8.04
2018-01-03T23:50:40.786Z,8.12
2018-01-03T23:53:08.657Z,8.07
2018-01-03T23:55:36.221Z,8.08
2018-01-03T23:58:03.657Z,8.09
